Time;durP1;ratioP1;P1;durP2;ratioP2;P2;SDS_P1;SDS_P2;PMS_P1;PMS_P2;Temp;Humidity;BMP_temperature;BMP_pressure;BME280_temperature;BME280_humidity;BME280_pressure;Samples;Min_cycle;Max_cycle;Signal;HPM_P1;HPM_P2
2023/05/17 00:01:24;;;;;;;3.72;1.85;;;10.20;99.90;;;;;;4992023;28;20033;-57
2023/05/17 00:03:52;;;;;;;1.10;1.00;;;10.20;99.90;;;;;;4991732;28;20058;-44
2023/05/17 00:06:19;;;;;;;3.10;1.77;;;10.20;99.90;;;;;;4991699;28;20033;-57
2023/05/17 00:08:44;;;;;;;2.35;1.65;;;10.10;99.90;;;;;;4991673;28;20513;-51
2023/05/17 00:11:10;;;;;;;2.75;1.23;;;10.10;99.90;;;;;;4991539;28;20031;-49
2023/05/17 00:13:37;;;;;;;1.45;1.00;;;10.10;99.90;;;;;;4991652;28;20409;-43
2023/05/17 00:16:03;;;;;;;3.05;1.98;;;10.10;99.90;;;;;;4991666;28;20246;-54
2023/05/17 00:18:29;;;;;;;10.20;1.38;;;10.10;99.90;;;;;;4991617;28;20049;-56
2023/05/17 00:20:54;;;;;;;1.27;1.00;;;10.10;99.90;;;;;;4991650;28;20019;-53
2023/05/17 00:23:20;;;;;;;2.85;1.40;;;10.10;99.90;;;;;;4991293;28;20118;-53
2023/05/17 00:25:46;;;;;;;1.17;0.98;;;10.10;99.90;;;;;;4991397;28;20018;-47
2023/05/17 00:28:11;;;;;;;2.17;1.08;;;10.00;99.90;;;;;;4991637;28;20093;-43
2023/05/17 00:30:37;;;;;;;3.28;1.35;;;10.00;99.90;;;;;;4991494;28;20338;-42
2023/05/17 00:33:03;;;;;;;1.85;1.13;;;10.00;99.90;;;;;;4997911;28;20465;-46
2023/05/17 00:35:29;;;;;;;0.77;0.68;;;9.90;99.90;;;;;;5011079;28;20068;-51
2023/05/17 00:37:55;;;;;;;2.60;2.28;;;9.90;99.90;;;;;;5010927;28;20030;-55
2023/05/17 00:40:21;;;;;;;2.13;1.40;;;9.90;99.90;;;;;;5011023;28;20444;-49
2023/05/17 00:42:46;;;;;;;3.15;1.30;;;9.90;99.90;;;;;;5010597;28;20534;-55
2023/05/17 00:45:12;;;;;;;1.00;0.88;;;9.90;99.90;;;;;;5009716;28;20100;-48
2023/05/17 00:47:38;;;;;;;1.90;1.02;;;9.90;99.90;;;;;;5010636;28;20025;-52
2023/05/17 00:50:05;;;;;;;4.85;1.95;;;9.80;99.90;;;;;;5010891;28;20025;-42
2023/05/17 00:52:30;;;;;;;3.50;1.20;;;9.80;99.90;;;;;;5010779;28;20026;-43
2023/05/17 00:54:56;;;;;;;0.95;0.73;;;9.80;99.90;;;;;;5025769;28;20025;-49
2023/05/17 00:57:22;;;;;;;2.25;1.67;;;9.70;99.90;;;;;;5010658;28;20029;-55
2023/05/17 00:59:48;;;;;;;2.60;1.40;;;9.70;99.90;;;;;;5010924;28;20115;-50
2023/05/17 01:02:14;;;;;;;3.03;1.33;;;9.70;99.90;;;;;;5010770;28;20113;-44
2023/05/17 01:04:40;;;;;;;2.53;1.67;;;9.70;99.90;;;;;;5010577;28;20105;-49
2023/05/17 01:07:06;;;;;;;3.70;1.77;;;9.60;99.90;;;;;;5009459;28;20025;-46
2023/05/17 01:09:32;;;;;;;3.05;1.27;;;9.60;99.90;;;;;;5013488;28;20538;-58
2023/05/17 01:12:35;;;;;;;2.85;1.63;;;9.60;99.90;;;;;;5014633;28;20090;-48
2023/05/17 01:15:07;;;;;;;2.28;1.67;;;9.60;99.90;;;;;;5014531;28;20034;-46
2023/05/17 01:18:01;;;;;;;1.08;0.95;;;9.50;99.90;;;;;;5014572;28;20116;-54
2023/05/17 01:20:36;;;;;;;2.38;1.52;;;9.60;99.90;;;;;;5014190;28;20025;-51
2023/05/17 01:23:38;;;;;;;2.22;1.38;;;9.50;99.90;;;;;;5014386;28;20050;-46
2023/05/17 01:26:15;;;;;;;1.00;0.80;;;9.50;99.90;;;;;;4992361;28;20018;-51
2023/05/17 01:28:44;;;;;;;0.75;0.73;;;9.40;99.90;;;;;;5014296;28;20489;-58
2023/05/17 01:31:11;;;;;;;2.65;1.20;;;9.30;99.90;;;;;;5014436;28;20463;-45
2023/05/17 01:33:37;;;;;;;1.23;0.75;;;9.30;99.90;;;;;;5014343;28;20030;-52
2023/05/17 01:36:03;;;;;;;1.20;1.10;;;9.20;99.90;;;;;;5014266;28;20391;-45
2023/05/17 01:38:29;;;;;;;1.83;1.30;;;9.20;99.90;;;;;;5014637;28;20481;-44
2023/05/17 01:41:12;;;;;;;1.35;1.10;;;9.20;99.90;;;;;;5013895;28;20501;-46
2023/05/17 01:43:51;;;;;;;2.97;1.42;;;9.10;99.90;;;;;;5014330;28;20072;-44
2023/05/17 01:46:22;;;;;;;7.97;1.55;;;9.10;99.90;;;;;;5014045;28;20018;-56
2023/05/17 01:49:04;;;;;;;1.58;1.33;;;9.00;99.90;;;;;;5013979;28;20076;-58
2023/05/17 01:51:35;;;;;;;2.47;1.45;;;9.00;99.90;;;;;;5013925;28;20018;-63
2023/05/17 01:54:10;;;;;;;1.50;0.80;;;9.00;99.90;;;;;;5013906;28;20026;-56
2023/05/17 01:56:40;;;;;;;2.55;1.55;;;9.00;99.90;;;;;;5013823;28;20026;-49
2023/05/17 01:59:06;;;;;;;2.28;1.52;;;8.90;99.90;;;;;;5013727;28;20061;-53
2023/05/17 02:01:34;;;;;;;3.50;1.58;;;8.90;99.90;;;;;;5013592;28;20104;-52
2023/05/17 02:03:59;;;;;;;1.48;1.10;;;8.90;99.90;;;;;;5014003;28;20041;-40
2023/05/17 02:06:25;;;;;;;2.72;1.50;;;8.90;99.90;;;;;;5013601;28;20033;-41
2023/05/17 02:08:50;;;;;;;2.03;1.63;;;8.90;99.90;;;;;;5013658;28;20026;-40
2023/05/17 02:11:16;;;;;;;0.85;0.85;;;8.90;99.90;;;;;;5013525;28;20029;-56
2023/05/17 02:13:41;;;;;;;3.28;1.35;;;8.90;99.90;;;;;;5013392;28;20030;-53
2023/05/17 02:16:07;;;;;;;2.25;1.17;;;8.90;99.90;;;;;;5007776;28;20037;-49
2023/05/17 02:18:34;;;;;;;2.47;1.35;;;8.80;99.90;;;;;;5013268;28;20485;-47
2023/05/17 02:21:00;;;;;;;1.58;0.90;;;8.80;99.90;;;;;;5012478;28;20026;-44
2023/05/17 02:23:26;;;;;;;2.00;0.98;;;8.80;99.90;;;;;;5013316;28;20049;-52
2023/05/17 02:25:51;;;;;;;2.35;1.60;;;8.80;99.90;;;;;;5013464;28;20562;-46
2023/05/17 02:28:17;;;;;;;2.10;1.48;;;8.80;99.90;;;;;;5013328;28;20057;-54
2023/05/17 02:30:43;;;;;;;1.63;1.52;;;8.70;99.90;;;;;;5013099;28;20049;-55
2023/05/17 02:33:09;;;;;;;3.15;1.15;;;8.70;99.90;;;;;;5013121;28;20385;-54
2023/05/17 02:35:34;;;;;;;1.65;1.05;;;8.70;99.90;;;;;;5013302;28;20085;-53
2023/05/17 02:38:00;;;;;;;1.45;0.95;;;8.60;99.90;;;;;;5012926;28;20046;-55
2023/05/17 02:40:26;;;;;;;3.00;1.10;;;8.50;99.90;;;;;;5013201;28;20030;-55
2023/05/17 02:42:51;;;;;;;2.75;1.67;;;8.50;99.90;;;;;;5012883;28;20050;-42
2023/05/17 02:45:17;;;;;;;1.48;1.15;;;8.40;99.90;;;;;;5012881;28;20355;-48
2023/05/17 02:47:43;;;;;;;1.50;1.40;;;8.30;99.90;;;;;;5012652;28;20022;-45
2023/05/17 02:50:09;;;;;;;6.13;1.55;;;8.20;99.90;;;;;;5012947;28;20057;-47
2023/05/17 02:52:34;;;;;;;1.63;1.05;;;8.10;99.90;;;;;;5012990;28;20030;-49
2023/05/17 02:55:00;;;;;;;4.03;1.33;;;8.10;99.90;;;;;;5012644;28;20026;-49
2023/05/17 02:57:26;;;;;;;2.28;1.67;;;8.00;99.90;;;;;;5012771;28;20021;-53
2023/05/17 02:59:51;;;;;;;3.22;1.95;;;7.90;99.90;;;;;;5012470;28;20034;-41
2023/05/17 03:02:17;;;;;;;2.42;1.00;;;7.90;99.90;;;;;;5012608;28;20040;-51
2023/05/17 03:04:42;;;;;;;8.57;1.50;;;7.90;99.90;;;;;;5012817;28;20076;-47
2023/05/17 03:07:08;;;;;;;1.02;0.75;;;7.90;99.90;;;;;;5012483;28;20022;-47
2023/05/17 03:09:34;;;;;;;0.85;0.60;;;8.00;99.90;;;;;;5012701;28;20068;-52
2023/05/17 03:12:00;;;;;;;1.80;1.23;;;8.00;99.90;;;;;;5012405;28;20022;-50
2023/05/17 03:14:26;;;;;;;1.30;1.20;;;8.00;99.90;;;;;;5012585;28;20152;-45
2023/05/17 03:16:51;;;;;;;1.20;1.10;;;8.00;99.90;;;;;;4998462;28;20136;-41
2023/05/17 03:19:17;;;;;;;1.48;1.20;;;7.90;99.90;;;;;;5012239;28;20392;-41
2023/05/17 03:21:42;;;;;;;2.80;1.60;;;7.90;99.90;;;;;;5012312;28;20038;-41
2023/05/17 03:24:08;;;;;;;4.85;1.58;;;7.80;99.90;;;;;;5012331;28;20022;-53
2023/05/17 03:26:33;;;;;;;1.27;0.75;;;7.80;99.90;;;;;;5012293;28;20393;-49
2023/05/17 03:28:59;;;;;;;1.80;1.42;;;7.70;99.90;;;;;;5012052;28;20382;-45
2023/05/17 03:31:25;;;;;;;0.50;0.50;;;7.70;99.90;;;;;;5011834;28;20036;-48
2023/05/17 03:33:51;;;;;;;1.85;1.42;;;7.70;99.90;;;;;;5012058;28;20038;-44
2023/05/17 03:36:16;;;;;;;2.20;0.90;;;7.60;99.90;;;;;;5012031;28;20052;-52
2023/05/17 03:38:42;;;;;;;1.10;1.00;;;7.60;99.90;;;;;;5011843;28;20041;-51
2023/05/17 03:41:08;;;;;;;1.52;1.17;;;7.60;99.90;;;;;;5011721;28;20022;-46
2023/05/17 03:43:33;;;;;;;2.47;1.55;;;7.50;99.90;;;;;;5011860;28;20057;-49
2023/05/17 03:45:59;;;;;;;1.58;1.48;;;7.60;99.90;;;;;;5011665;28;20021;-49
2023/05/17 03:48:24;;;;;;;1.13;1.02;;;7.50;99.90;;;;;;5000995;28;20062;-53
2023/05/17 03:50:50;;;;;;;1.98;1.13;;;7.50;99.90;;;;;;4990787;28;20026;-42
2023/05/17 03:53:16;;;;;;;1.52;0.95;;;7.50;99.90;;;;;;4992135;28;20022;-48
2023/05/17 03:55:41;;;;;;;1.35;1.25;;;7.50;99.90;;;;;;4992046;28;20038;-50
2023/05/17 03:58:07;;;;;;;0.85;0.73;;;7.50;99.90;;;;;;4991979;28;20038;-49
2023/05/17 04:00:33;;;;;;;3.55;1.38;;;7.50;99.90;;;;;;4991980;28;20109;-51
2023/05/17 04:02:59;;;;;;;0.85;0.70;;;7.50;99.90;;;;;;4991930;28;20429;-46
2023/05/17 04:05:25;;;;;;;2.42;1.58;;;7.50;99.90;;;;;;4991790;28;20026;-46
2023/05/17 04:07:51;;;;;;;1.35;1.20;;;7.50;99.90;;;;;;4991831;28;20034;-50
2023/05/17 04:10:16;;;;;;;1.08;0.95;;;7.50;99.90;;;;;;4991850;28;20073;-42
2023/05/17 04:12:42;;;;;;;1.77;1.42;;;7.50;99.90;;;;;;4991289;28;20374;-50
2023/05/17 04:15:08;;;;;;;1.95;1.42;;;7.40;99.90;;;;;;4991563;28;20062;-44
2023/05/17 04:17:33;;;;;;;1.15;0.65;;;7.40;99.90;;;;;;4991450;28;20109;-41
2023/05/17 04:19:59;;;;;;;1.42;0.93;;;7.40;99.90;;;;;;4991808;28;20158;-40
2023/05/17 04:22:25;;;;;;;1.48;0.93;;;7.40;99.90;;;;;;4991362;28;20585;-44
2023/05/17 04:24:50;;;;;;;3.10;1.15;;;7.40;99.90;;;;;;4991584;28;20061;-41
2023/05/17 04:27:16;;;;;;;2.33;1.08;;;7.40;99.90;;;;;;4991197;28;20080;-51
2023/05/17 04:29:42;;;;;;;2.13;1.60;;;7.40;99.90;;;;;;4991431;28;20068;-52
2023/05/17 04:32:08;;;;;;;1.90;1.45;;;7.40;99.90;;;;;;4991746;28;20524;-42
2023/05/17 04:34:33;;;;;;;2.17;1.17;;;7.40;99.90;;;;;;4991296;28;20022;-44
2023/05/17 04:36:59;;;;;;;1.75;1.45;;;7.40;99.90;;;;;;4991376;28;20033;-59
2023/05/17 04:39:24;;;;;;;2.70;1.15;;;7.50;99.90;;;;;;4991421;28;20401;-50
2023/05/17 04:41:50;;;;;;;0.93;0.68;;;7.50;99.90;;;;;;4991280;28;20042;-49
2023/05/17 04:44:16;;;;;;;1.90;1.00;;;7.60;99.90;;;;;;4990788;28;20125;-50
2023/05/17 04:46:42;;;;;;;0.70;0.70;;;7.70;99.90;;;;;;4991278;28;20018;-45
2023/05/17 04:49:08;;;;;;;1.65;1.23;;;7.70;99.90;;;;;;4991474;28;20101;-44
2023/05/17 04:51:34;;;;;;;3.47;2.15;;;7.80;99.90;;;;;;4991155;28;20018;-41
2023/05/17 04:54:00;;;;;;;3.28;1.80;;;7.90;99.90;;;;;;4991306;28;20030;-50
2023/05/17 04:56:27;;;;;;;6.53;1.42;;;7.90;99.90;;;;;;5006209;28;20113;-45
2023/05/17 04:58:53;;;;;;;2.50;1.90;;;8.00;99.90;;;;;;4990965;28;20031;-42
2023/05/17 05:01:19;;;;;;;3.80;1.88;;;8.00;99.90;;;;;;4991205;28;20493;-51
2023/05/17 05:03:44;;;;;;;5.47;2.83;;;8.10;99.90;;;;;;4991043;28;20045;-48
2023/05/17 05:06:10;;;;;;;3.65;1.90;;;8.20;99.90;;;;;;4991187;28;20022;-51
2023/05/17 05:08:37;;;;;;;2.72;2.42;;;8.30;99.90;;;;;;4991061;28;20026;-42
2023/05/17 05:11:03;;;;;;;1.95;1.55;;;8.30;99.90;;;;;;4991201;28;20037;-45
2023/05/17 05:13:28;;;;;;;2.20;2.00;;;8.40;99.90;;;;;;4991003;28;20026;-45
2023/05/17 05:15:54;;;;;;;4.47;1.88;;;8.50;99.90;;;;;;4991151;28;20018;-49
2023/05/17 05:18:20;;;;;;;1.80;1.45;;;8.60;99.90;;;;;;4990889;28;20425;-53
2023/05/17 05:20:47;;;;;;;1.40;1.30;;;8.70;99.90;;;;;;4991063;28;20109;-52
2023/05/17 05:23:13;;;;;;;2.97;1.65;;;8.80;99.90;;;;;;4990941;28;20449;-60
2023/05/17 05:25:39;;;;;;;3.22;1.65;;;8.80;99.90;;;;;;4990804;28;20093;-50
2023/05/17 05:28:04;;;;;;;3.28;1.42;;;8.90;99.90;;;;;;4991020;28;20030;-52
2023/05/17 05:30:31;;;;;;;2.05;1.45;;;9.00;99.90;;;;;;4991003;28;20066;-51
2023/05/17 05:32:57;;;;;;;1.35;1.20;;;9.20;99.90;;;;;;4991159;28;20042;-55
2023/05/17 05:35:28;;;;;;;1.17;1.00;;;9.20;99.90;;;;;;4990656;28;20530;-47
2023/05/17 05:37:54;;;;;;;2.80;2.13;;;9.40;99.90;;;;;;4990829;28;20045;-53
2023/05/17 05:40:20;;;;;;;1.65;1.05;;;9.60;99.90;;;;;;4990795;28;20023;-44
2023/05/17 05:42:46;;;;;;;1.88;1.23;;;9.80;99.90;;;;;;4990454;28;20046;-46
2023/05/17 05:45:11;;;;;;;3.13;1.83;;;10.00;99.90;;;;;;4991285;28;20105;-53
2023/05/17 05:47:37;;;;;;;4.10;1.70;;;10.20;99.90;;;;;;4990839;28;20508;-45
2023/05/17 05:50:04;;;;;;;2.58;1.65;;;10.40;99.90;;;;;;4990948;28;20433;-50
2023/05/17 05:52:30;;;;;;;2.95;1.73;;;10.50;99.90;;;;;;4990626;28;20021;-59
2023/05/17 05:54:56;;;;;;;2.00;1.35;;;11.00;99.90;;;;;;4990772;28;20105;-51
2023/05/17 05:57:21;;;;;;;2.60;1.52;;;11.70;99.90;;;;;;4994086;28;20437;-43
2023/05/17 05:59:47;;;;;;;4.97;1.80;;;12.60;99.90;;;;;;4994252;28;20045;-43
2023/05/17 06:02:13;;;;;;;3.15;1.77;;;13.60;99.90;;;;;;4994248;28;20080;-47
2023/05/17 06:04:38;;;;;;;3.88;2.35;;;14.60;99.90;;;;;;4994410;28;20027;-61
2023/05/17 06:07:04;;;;;;;8.10;2.50;;;15.20;99.90;;;;;;4993964;28;20084;-57
2023/05/17 06:09:29;;;;;;;6.82;2.38;;;15.40;99.90;;;;;;4994265;28;20022;-51
2023/05/17 06:11:55;;;;;;;4.78;1.92;;;15.60;99.90;;;;;;4992510;28;20543;-49
2023/05/17 06:14:21;;;;;;;5.70;2.63;;;15.90;99.90;;;;;;4993849;28;20026;-53
2023/05/17 06:16:47;;;;;;;5.35;2.72;;;16.30;99.90;;;;;;4993731;28;20065;-54
2023/05/17 06:19:13;;;;;;;6.72;2.15;;;16.60;99.90;;;;;;4993909;28;20038;-55
2023/05/17 06:21:39;;;;;;;3.58;1.85;;;17.10;99.90;;;;;;4993831;28;20101;-44
2023/05/17 06:24:05;;;;;;;3.67;1.88;;;17.50;99.90;;;;;;4993676;28;20290;-43
2023/05/17 06:26:31;;;;;;;3.65;1.55;;;17.70;99.90;;;;;;4993628;28;20545;-42
2023/05/17 06:28:56;;;;;;;4.30;1.77;;;18.00;99.90;;;;;;4993710;28;20105;-44
2023/05/17 06:31:22;;;;;;;3.10;1.40;;;18.20;99.90;;;;;;4994434;28;20053;-50
2023/05/17 06:33:47;;;;;;;2.95;1.40;;;18.50;99.90;;;;;;4993402;28;20092;-49
2023/05/17 06:36:13;;;;;;;4.28;1.10;;;19.00;99.90;;;;;;4993572;28;20022;-62
2023/05/17 06:38:39;;;;;;;2.67;1.20;;;19.40;99.90;;;;;;4993255;28;20054;-54
2023/05/17 06:41:04;;;;;;;3.22;1.00;;;19.70;98.40;;;;;;4993313;28;20023;-50
2023/05/17 06:43:30;;;;;;;5.63;1.17;;;20.20;99.60;;;;;;4993422;28;20035;-45
2023/05/17 06:45:56;;;;;;;5.03;1.50;;;20.50;96.80;;;;;;4993155;28;20026;-47
2023/05/17 06:48:21;;;;;;;2.03;0.90;;;20.50;97.50;;;;;;4993425;28;20031;-59
2023/05/17 06:50:47;;;;;;;3.75;1.50;;;20.80;94.10;;;;;;4993025;28;20022;-55
2023/05/17 06:53:13;;;;;;;3.53;1.30;;;20.80;96.00;;;;;;5003348;28;20543;-57
2023/05/17 06:55:39;;;;;;;1.90;1.00;;;20.80;95.60;;;;;;5008498;28;20029;-42
2023/05/17 06:58:04;;;;;;;2.65;1.17;;;20.90;95.20;;;;;;4994310;28;20039;-49
2023/05/17 07:00:30;;;;;;;2.47;1.10;;;21.20;94.60;;;;;;4993511;28;20412;-50
2023/05/17 07:02:56;;;;;;;3.88;1.55;;;21.30;91.00;;;;;;4993056;28;20110;-55
2023/05/17 07:05:26;;;;;;;1.77;0.95;;;21.50;91.40;;;;;;4992871;28;20397;-46
2023/05/17 07:07:52;;;;;;;2.13;0.95;;;21.90;90.30;;;;;;4992322;28;20485;-61
2023/05/17 07:10:18;;;;;;;3.67;1.45;;;22.00;87.00;;;;;;4992665;28;20133;-54
2023/05/17 07:12:43;;;;;;;3.88;1.50;;;22.30;88.50;;;;;;4992912;28;20065;-60
2023/05/17 07:15:09;;;;;;;1.65;0.80;;;22.40;89.80;;;;;;5007166;28;20034;-55
2023/05/17 07:17:36;;;;;;;3.17;1.20;;;22.50;85.50;;;;;;4991852;28;20073;-56
2023/05/17 07:20:02;;;;;;;2.10;0.82;;;22.50;85.70;;;;;;4997963;28;20046;-47
2023/05/17 07:22:28;;;;;;;2.55;0.95;;;23.30;88.60;;;;;;4992426;28;20033;-45
2023/05/17 07:24:53;;;;;;;2.28;0.88;;;23.70;76.70;;;;;;4992295;28;20014;-47
2023/05/17 07:27:19;;;;;;;1.17;0.82;;;24.00;76.80;;;;;;4992157;28;20027;-44
2023/05/17 07:29:44;;;;;;;1.50;0.90;;;24.10;78.40;;;;;;4992615;28;20117;-42
2023/05/17 07:32:10;;;;;;;1.63;0.77;;;24.20;74.80;;;;;;4992209;28;20390;-50
2023/05/17 07:34:36;;;;;;;2.60;1.15;;;24.40;73.60;;;;;;4992379;28;20121;-46
2023/05/17 07:37:02;;;;;;;1.55;0.70;;;24.70;74.20;;;;;;4991976;28;20018;-51
2023/05/17 07:39:27;;;;;;;1.00;0.65;;;24.90;70.80;;;;;;4992420;28;20049;-42
2023/05/17 07:41:53;;;;;;;2.22;0.85;;;25.20;72.70;;;;;;4991941;28;20703;-39
2023/05/17 07:44:20;;;;;;;2.45;0.90;;;25.20;69.40;;;;;;4992014;28;20100;-44
2023/05/17 07:46:46;;;;;;;3.70;0.80;;;25.60;67.40;;;;;;4991732;28;20076;-48
2023/05/17 07:49:13;;;;;;;1.20;0.77;;;25.60;69.30;;;;;;4992110;28;20054;-52
2023/05/17 07:51:38;;;;;;;3.25;0.60;;;25.90;69.80;;;;;;4991752;28;20049;-44
2023/05/17 07:54:04;;;;;;;2.45;0.90;;;26.00;68.60;;;;;;4991292;28;20386;-52
2023/05/17 07:56:30;;;;;;;0.93;0.70;;;25.90;68.10;;;;;;4991041;28;20030;-43
2023/05/17 07:58:56;;;;;;;6.55;0.95;;;25.50;63.90;;;;;;4991812;28;20709;-50
2023/05/17 08:01:22;;;;;;;1.02;0.65;;;25.40;67.90;;;;;;4992050;28;20034;-42
2023/05/17 08:03:48;;;;;;;1.20;0.50;;;25.50;68.20;;;;;;4991904;28;20027;-50
2023/05/17 08:06:15;;;;;;;2.85;1.00;;;25.70;67.30;;;;;;4993253;28;20035;-40
2023/05/17 08:08:41;;;;;;;1.95;1.00;;;25.80;66.40;;;;;;4992529;28;20026;-46
2023/05/17 08:11:07;;;;;;;1.92;0.73;;;25.90;66.90;;;;;;4991873;28;20433;-43
2023/05/17 08:13:32;;;;;;;3.10;0.90;;;26.10;66.20;;;;;;4991033;28;20084;-58
2023/05/17 08:16:02;;;;;;;1.65;0.90;;;26.20;63.70;;;;;;4992107;28;20170;-51
2023/05/17 08:18:31;;;;;;;3.55;0.80;;;26.30;63.70;;;;;;4990732;28;20046;-43
2023/05/17 08:20:57;;;;;;;;;;;26.40;64.10;;;;;;4996007;28;20026;-41
2023/05/17 08:23:22;;;;;;;1.35;0.65;;;25.50;61.40;;;;;;4994437;28;20285;-50
2023/05/17 08:25:48;;;;;;;1.15;0.73;;;25.60;66.80;;;;;;4991534;28;20104;-45
2023/05/17 08:28:13;;;;;;;1.40;0.68;;;25.50;67.60;;;;;;4991067;28;20385;-44
2023/05/17 08:30:40;;;;;;;1.33;0.70;;;25.40;70.70;;;;;;4991444;28;20022;-43
2023/05/17 08:33:08;;;;;;;0.77;0.52;;;25.50;64.60;;;;;;4991634;28;20037;-56
2023/05/17 08:35:33;;;;;;;1.60;0.80;;;25.70;66.30;;;;;;5006177;28;20018;-44
2023/05/17 08:37:59;;;;;;;2.03;0.70;;;25.70;64.60;;;;;;4999687;28;20091;-44
2023/05/17 08:40:26;;;;;;;3.30;0.90;;;25.40;68.60;;;;;;4995195;28;20066;-43
2023/05/17 08:42:51;;;;;;;1.70;0.80;;;25.40;73.00;;;;;;4991228;28;20081;-50
2023/05/17 08:45:17;;;;;;;2.72;1.08;;;25.30;70.30;;;;;;4991194;28;20055;-41
2023/05/17 08:47:45;;;;;;;2.30;0.85;;;25.30;69.30;;;;;;4992665;28;20030;-41
2023/05/17 08:50:11;;;;;;;1.02;0.73;;;25.10;71.60;;;;;;4998898;28;20025;-44
2023/05/17 08:52:39;;;;;;;0.82;0.57;;;25.00;69.50;;;;;;4997390;28;20109;-45
2023/05/17 08:55:07;;;;;;;0.82;0.55;;;24.90;71.70;;;;;;4995119;28;20093;-45
2023/05/17 08:57:37;;;;;;;1.77;0.77;;;25.20;67.00;;;;;;4990578;28;20381;-40
2023/05/17 09:00:11;;;;;;;1.80;0.80;;;25.50;66.40;;;;;;4991237;28;20406;-48
2023/05/17 09:02:37;;;;;;;1.20;0.70;;;25.30;66.50;;;;;;5006302;28;20462;-47
2023/05/17 09:05:05;;;;;;;1.35;0.85;;;24.90;73.00;;;;;;4991141;28;20023;-52
2023/05/17 09:07:31;;;;;;;3.03;0.57;;;24.90;65.00;;;;;;5006223;28;20461;-52
2023/05/17 09:09:57;;;;;;;2.03;0.70;;;25.10;72.70;;;;;;4990943;28;20062;-53
2023/05/17 09:12:22;;;;;;;1.48;0.70;;;25.40;68.10;;;;;;4991127;28;20354;-52
2023/05/17 09:14:48;;;;;;;2.70;0.80;;;25.10;66.70;;;;;;4991090;28;20033;-50
2023/05/17 09:17:18;;;;;;;4.03;1.08;;;24.70;75.70;;;;;;4990793;28;20045;-51
2023/05/17 09:19:46;;;;;;;1.40;0.77;;;24.80;70.50;;;;;;4990961;28;20042;-55
2023/05/17 09:22:17;;;;;;;1.42;0.68;;;24.70;72.10;;;;;;4990916;28;20022;-53
2023/05/17 09:24:43;;;;;;;1.30;0.80;;;24.70;69.50;;;;;;4991201;28;20030;-57
2023/05/17 09:27:15;;;;;;;1.67;0.90;;;24.90;75.70;;;;;;4987119;28;20022;-53
2023/05/17 09:29:43;;;;;;;1.65;0.73;;;25.10;69.90;;;;;;4987747;28;20401;-54
2023/05/17 09:32:17;;;;;;;1.50;0.80;;;25.30;66.60;;;;;;4994481;28;20026;-57
2023/05/17 09:34:45;;;;;;;1.92;0.88;;;25.40;65.10;;;;;;4996077;28;20026;-58
2023/05/17 09:37:13;;;;;;;1.33;0.60;;;25.50;65.40;;;;;;5001112;28;20048;-57
2023/05/17 09:39:39;;;;;;;3.42;0.80;;;25.60;66.80;;;;;;4994192;28;20097;-48
2023/05/17 09:42:05;;;;;;;2.88;0.80;;;25.60;63.00;;;;;;4990966;28;20039;-51
2023/05/17 09:44:31;;;;;;;6.30;0.82;;;25.90;67.00;;;;;;4992973;28;20248;-56
2023/05/17 09:46:57;;;;;;;1.98;0.98;;;26.00;64.60;;;;;;4993091;28;20552;-54
2023/05/17 09:49:25;;;;;;;0.70;0.50;;;26.00;66.00;;;;;;4993111;28;20027;-50
2023/05/17 09:51:51;;;;;;;;;;;26.00;68.00;;;;;;4994831;28;20023;-42
2023/05/17 09:54:17;;;;;;;2.30;0.98;;;26.40;66.90;;;;;;4994377;28;19906;-61
2023/05/17 09:56:43;;;;;;;1.67;0.90;;;26.20;66.40;;;;;;4993707;28;20049;-60
2023/05/17 09:59:14;;;;;;;1.52;0.88;;;26.30;65.40;;;;;;4989467;28;20049;-40
2023/05/17 10:01:43;;;;;;;0.90;0.57;;;26.50;64.90;;;;;;4987099;28;20502;-40
2023/05/17 10:04:09;;;;;;;;;;;26.50;66.00;;;;;;4992405;28;20568;-40
2023/05/17 10:06:38;;;;;;;1.95;0.75;;;26.70;62.50;;;;;;4994176;28;19949;-41
2023/05/17 10:09:05;;;;;;;0.80;0.60;;;26.70;57.30;;;;;;4990552;28;20117;-43
2023/05/17 10:11:34;;;;;;;0.68;0.50;;;26.30;64.00;;;;;;4991842;28;20034;-42
2023/05/17 10:14:00;;;;;;;;;;;26.30;62.90;;;;;;4991043;28;20037;-49
2023/05/17 10:16:26;;;;;;;1.38;0.52;;;26.20;58.90;;;;;;4992681;28;19910;-42
2023/05/17 10:18:52;;;;;;;1.30;0.65;;;26.20;62.10;;;;;;5000571;28;20053;-43
2023/05/17 10:21:18;;;;;;;1.15;0.70;;;26.50;62.80;;;;;;4994400;28;20030;-48
2023/05/17 10:23:46;;;;;;;2.00;0.80;;;26.50;59.20;;;;;;4992536;28;20057;-48
2023/05/17 10:26:12;;;;;;;1.75;0.80;;;25.90;59.80;;;;;;4992998;28;20108;-56
2023/05/17 10:28:38;;;;;;;2.45;0.80;;;25.70;65.70;;;;;;4993326;28;20496;-47
2023/05/17 10:31:05;;;;;;;1.52;0.70;;;26.10;63.70;;;;;;4989048;28;20023;-40
2023/05/17 10:33:31;;;;;;;1.40;0.90;;;26.50;63.20;;;;;;4993155;28;20072;-50
2023/05/17 10:35:58;;;;;;;2.40;0.68;;;26.80;60.20;;;;;;4992908;28;20029;-48
2023/05/17 10:38:26;;;;;;;1.85;0.70;;;26.70;61.80;;;;;;4993648;28;20318;-48
2023/05/17 10:40:53;;;;;;;2.45;0.70;;;25.60;57.30;;;;;;4989242;28;20500;-50
2023/05/17 10:43:20;;;;;;;1.27;0.70;;;25.40;66.30;;;;;;4992963;28;20486;-44
2023/05/17 10:45:45;;;;;;;2.40;0.70;;;25.50;59.90;;;;;;4992927;28;20069;-41
2023/05/17 10:48:14;;;;;;;2.00;1.00;;;25.60;60.80;;;;;;4996382;28;20452;-39
2023/05/17 10:50:41;;;;;;;2.25;1.05;;;25.90;63.70;;;;;;4994704;28;20405;-41
2023/05/17 10:53:10;;;;;;;2.85;0.80;;;25.90;70.20;;;;;;4992903;28;20025;-40
2023/05/17 10:55:37;;;;;;;5.45;1.13;;;26.40;61.40;;;;;;4990247;28;20142;-55
2023/05/17 10:58:18;;;;;;;1.65;0.80;;;26.30;63.30;;;;;;4990212;28;20049;-45
2023/05/17 11:00:46;;;;;;;2.08;0.90;;;26.40;62.80;;;;;;4988146;28;20069;-46
2023/05/17 11:03:17;;;;;;;4.47;1.13;;;26.70;59.30;;;;;;4990990;28;20053;-40
2023/05/17 11:06:04;;;;;;;4.15;0.70;;;27.30;59.80;;;;;;4990770;28;20026;-39
2023/05/17 11:08:30;;;;;;;3.10;0.80;;;27.30;58.70;;;;;;4991731;28;20025;-41
2023/05/17 11:11:16;;;;;;;0.82;0.50;;;27.10;57.30;;;;;;4992251;28;20034;-43
2023/05/17 11:13:55;;;;;;;1.17;0.70;;;27.10;62.90;;;;;;4990202;28;20176;-53
2023/05/17 11:16:27;;;;;;;1.23;0.80;;;27.20;53.20;;;;;;4983737;28;20027;-52
2023/05/17 11:18:56;;;;;;;1.67;0.57;;;26.60;56.20;;;;;;4984277;28;20038;-55
2023/05/17 11:21:21;;;;;;;2.10;0.90;;;26.70;56.80;;;;;;4989564;28;20031;-53
2023/05/17 11:23:53;;;;;;;2.22;0.70;;;26.90;66.40;;;;;;4991308;28;20370;-55
2023/05/17 11:26:27;;;;;;;1.05;0.63;;;26.80;63.30;;;;;;4991607;28;20497;-52
2023/05/17 11:29:06;;;;;;;0.82;0.60;;;26.50;57.80;;;;;;4990738;28;20121;-53
2023/05/17 11:31:34;;;;;;;1.27;0.85;;;25.90;57.60;;;;;;4983201;28;20508;-45
2023/05/17 11:34:04;;;;;;;0.75;0.50;;;25.20;60.70;;;;;;4991154;28;20334;-49
2023/05/17 11:36:31;;;;;;;1.45;0.77;;;24.60;61.70;;;;;;4991903;28;20548;-49
2023/05/17 11:39:11;;;;;;;2.50;1.00;;;24.10;58.50;;;;;;4991098;28;20085;-48
2023/05/17 11:41:41;;;;;;;2.20;0.60;;;23.90;60.60;;;;;;4990742;28;20050;-41
2023/05/17 11:44:08;;;;;;;1.85;0.77;;;24.00;68.60;;;;;;4991339;28;20030;-46
2023/05/17 11:46:36;;;;;;;1.25;0.70;;;23.90;66.20;;;;;;4994453;28;20026;-43
2023/05/17 11:49:08;;;;;;;2.08;0.88;;;23.40;66.50;;;;;;4991522;28;20074;-48
2023/05/17 11:51:34;;;;;;;1.92;0.80;;;22.90;65.00;;;;;;4992012;28;20023;-46
2023/05/17 11:54:02;;;;;;;1.67;0.75;;;22.50;68.00;;;;;;4990978;28;20022;-41
2023/05/17 11:56:35;;;;;;;0.80;0.60;;;22.10;70.50;;;;;;4997192;28;20398;-50
2023/05/17 11:59:01;;;;;;;1.25;0.80;;;21.80;68.50;;;;;;4991313;28;20030;-41
2023/05/17 12:01:27;;;;;;;1.40;0.70;;;21.80;68.60;;;;;;4995548;28;20076;-49
2023/05/17 12:03:58;;;;;;;2.53;0.80;;;22.20;66.60;;;;;;4991598;28;20022;-51
2023/05/17 12:06:24;;;;;;;1.40;0.90;;;22.60;70.50;;;;;;4992389;28;20026;-47
2023/05/17 12:08:50;;;;;;;1.65;0.73;;;22.90;69.90;;;;;;5005022;28;20085;-47
2023/05/17 12:11:17;;;;;;;2.67;0.70;;;22.70;66.20;;;;;;4991656;28;20034;-51
2023/05/17 12:13:45;;;;;;;2.97;0.82;;;22.60;67.50;;;;;;4991642;28;20061;-49
2023/05/17 12:16:13;;;;;;;1.30;0.70;;;22.20;71.70;;;;;;4991674;28;20056;-48
2023/05/17 12:18:43;;;;;;;1.20;0.60;;;21.70;75.80;;;;;;4999752;28;20084;-61
2023/05/17 12:21:12;;;;;;;3.17;0.70;;;21.50;69.00;;;;;;5003183;28;20416;-63
2023/05/17 12:23:40;;;;;;;2.83;0.85;;;21.30;70.70;;;;;;5003245;28;20029;-45
2023/05/17 12:26:10;;;;;;;3.45;0.70;;;21.60;71.40;;;;;;5001877;28;20492;-61
2023/05/17 12:28:38;;;;;;;0.98;0.50;;;22.10;78.50;;;;;;4999670;28;20076;-51
2023/05/17 12:31:08;;;;;;;1.38;0.90;;;22.90;73.80;;;;;;4991298;28;20022;-52
2023/05/17 12:33:39;;;;;;;1.13;0.70;;;23.60;65.50;;;;;;4991717;28;20035;-51
2023/05/17 12:36:07;;;;;;;1.48;0.90;;;23.90;68.30;;;;;;4993271;28;20026;-46
2023/05/17 12:38:33;;;;;;;3.65;1.10;;;23.90;68.90;;;;;;4996213;28;20077;-57
2023/05/17 12:41:04;;;;;;;1.95;0.88;;;23.60;64.10;;;;;;4991474;28;20026;-44
2023/05/17 12:43:31;;;;;;;0.90;0.65;;;23.30;69.30;;;;;;4991014;28;20417;-42
2023/05/17 12:46:08;;;;;;;3.42;0.85;;;23.10;67.40;;;;;;4991404;28;20033;-41
2023/05/17 12:48:35;;;;;;;1.58;0.60;;;22.70;62.90;;;;;;4991066;28;20018;-52
2023/05/17 12:51:11;;;;;;;2.50;0.90;;;22.30;69.70;;;;;;4991227;28;20097;-47
2023/05/17 12:53:42;;;;;;;1.42;0.70;;;21.90;73.20;;;;;;4990601;28;20045;-57